createdAt,value
2018-05-31T00:01:46.266Z,80.54
2018-05-31T00:04:20.873Z,80.70
2018-05-31T00:06:56.110Z,80.53
2018-05-31T00:09:30.921Z,80.65
2018-05-31T00:12:05.465Z,80.63
2018-05-31T00:14:40.654Z,80.41
2018-05-31T00:17:15.558Z,80.13
2018-05-31T00:19:50.586Z,79.69
2018-05-31T00:22:25.609Z,79.11
2018-05-31T00:25:00.362Z,78.75
2018-05-31T00:27:35.345Z,77.39
2018-05-31T00:30:10.554Z,76.78
2018-05-31T00:32:45.974Z,76.96
2018-05-31T00:35:21.053Z,77.15
2018-05-31T00:37:56.207Z,76.93
2018-05-31T00:40:31.181Z,76.52
2018-05-31T00:43:06.422Z,76.44
2018-05-31T00:45:41.759Z,76.72
2018-05-31T00:48:17.009Z,76.91
2018-05-31T00:50:51.718Z,76.74
2018-05-31T00:53:26.500Z,76.23
2018-05-31T00:56:16.997Z,75.81
2018-05-31T00:58:51.657Z,75.96
2018-05-31T01:01:26.720Z,76.89
2018-05-31T01:04:01.810Z,77.31
2018-05-31T01:06:36.767Z,77.38
2018-05-31T01:09:12.218Z,77.08
2018-05-31T01:11:47.298Z,77.11
2018-05-31T01:14:22.386Z,77.38
2018-05-31T01:16:57.049Z,77.31
2018-05-31T01:19:31.870Z,76.71
2018-05-31T01:22:06.916Z,76.86
2018-05-31T01:24:41.859Z,76.68
2018-05-31T01:27:16.798Z,76.36
2018-05-31T01:29:53.210Z,76.72
2018-05-31T01:32:28.799Z,76.62
2018-05-31T01:35:04.055Z,76.45
2018-05-31T01:37:39.077Z,76.14
2018-05-31T01:40:14.382Z,76.51
2018-05-31T01:42:49.590Z,76.37
2018-05-31T01:45:24.798Z,76.04
2018-05-31T01:48:00.504Z,75.97
2018-05-31T01:50:35.781Z,76.73
2018-05-31T01:53:11.025Z,76.85
2018-05-31T01:55:45.924Z,76.92
2018-05-31T01:58:21.115Z,77.07
2018-05-31T02:00:56.065Z,77.09
2018-05-31T02:03:31.312Z,76.84
2018-05-31T02:06:05.606Z,77.52
2018-05-31T02:08:41.031Z,77.77
2018-05-31T02:11:16.166Z,78.95
2018-05-31T02:13:50.880Z,79.51
2018-05-31T02:16:26.345Z,79.64
2018-05-31T02:19:01.391Z,79.28
2018-05-31T02:21:36.209Z,79.15
2018-05-31T02:24:20.526Z,78.99
2018-05-31T02:26:55.193Z,78.89
2018-05-31T02:29:29.929Z,78.67
2018-05-31T02:32:04.651Z,78.79
2018-05-31T02:34:39.686Z,78.41
2018-05-31T02:37:14.534Z,78.13
2018-05-31T02:39:49.437Z,78.93
2018-05-31T02:42:24.490Z,79.08
2018-05-31T02:44:59.588Z,79.02
2018-05-31T02:47:34.749Z,78.74
2018-05-31T02:50:10.214Z,78.56
2018-05-31T02:52:45.130Z,78.22
2018-05-31T02:55:20.490Z,78.14
2018-05-31T02:57:55.634Z,77.95
2018-05-31T03:00:30.947Z,77.94
2018-05-31T03:03:06.035Z,77.88
2018-05-31T03:05:41.245Z,77.77
2018-05-31T03:08:16.698Z,77.90
2018-05-31T03:10:51.796Z,77.72
2018-05-31T03:13:27.010Z,77.62
2018-05-31T03:16:01.649Z,77.77
2018-05-31T03:18:36.337Z,77.71
2018-05-31T03:21:11.782Z,78.60
2018-05-31T03:23:47.104Z,79.03
2018-05-31T03:26:22.577Z,79.30
2018-05-31T03:28:57.699Z,79.71
2018-05-31T03:31:32.930Z,79.81
2018-05-31T03:34:08.471Z,79.91
2018-05-31T03:36:43.611Z,79.46
2018-05-31T03:39:18.366Z,79.46
2018-05-31T03:41:53.087Z,79.72
2018-05-31T03:44:27.894Z,79.75
2018-05-31T03:47:02.897Z,79.61
2018-05-31T03:49:37.601Z,79.40
2018-05-31T03:52:12.603Z,79.13
2018-05-31T03:54:47.564Z,78.81
2018-05-31T03:57:22.382Z,78.60
2018-05-31T03:59:57.493Z,78.73
2018-05-31T04:02:32.633Z,78.82
2018-05-31T04:05:07.774Z,78.88
2018-05-31T04:07:43.197Z,79.05
2018-05-31T04:10:18.382Z,79.07
2018-05-31T04:12:53.866Z,78.76
2018-05-31T04:15:29.444Z,78.61
2018-05-31T04:18:04.690Z,78.35
2018-05-31T04:20:39.594Z,78.23
2018-05-31T04:23:14.454Z,77.95
2018-05-31T04:25:49.286Z,77.52
2018-05-31T04:28:24.582Z,77.21
2018-05-31T04:30:59.201Z,77.02
2018-05-31T04:33:34.825Z,76.60
2018-05-31T04:36:10.045Z,76.62
2018-05-31T04:38:45.102Z,76.51
2018-05-31T04:41:20.136Z,76.15
2018-05-31T04:43:55.145Z,75.99
2018-05-31T04:46:30.289Z,75.99
2018-05-31T04:49:04.831Z,75.92
2018-05-31T04:51:39.773Z,75.87
2018-05-31T04:54:14.716Z,75.86
2018-05-31T04:56:49.601Z,75.63
2018-05-31T04:59:24.578Z,76.12
2018-05-31T05:01:59.246Z,76.26
2018-05-31T05:04:34.486Z,76.66
2018-05-31T05:07:09.486Z,76.90
2018-05-31T05:09:44.284Z,77.03
2018-05-31T05:12:19.256Z,76.89
2018-05-31T05:14:54.278Z,76.17
2018-05-31T05:17:29.311Z,76.12
2018-05-31T05:20:04.009Z,76.38
2018-05-31T05:22:38.579Z,75.47
2018-05-31T05:25:13.300Z,75.47
2018-05-31T05:27:48.930Z,75.56
2018-05-31T05:30:23.745Z,75.90
2018-05-31T05:32:58.349Z,75.97
2018-05-31T05:35:33.398Z,75.83
2018-05-31T05:38:08.445Z,76.46
2018-05-31T05:40:43.556Z,76.62
2018-05-31T05:43:18.403Z,76.35
2018-05-31T05:45:53.686Z,75.93
2018-05-31T05:48:29.018Z,75.45
2018-05-31T05:51:03.951Z,75.03
2018-05-31T05:53:38.767Z,74.16
2018-05-31T05:56:13.693Z,73.22
2018-05-31T05:58:48.779Z,73.79
2018-05-31T06:01:23.781Z,74.25
2018-05-31T06:03:58.922Z,75.01
2018-05-31T06:06:33.951Z,75.48
2018-05-31T06:09:08.769Z,74.77
2018-05-31T06:11:43.710Z,74.36
2018-05-31T06:14:18.554Z,74.60
2018-05-31T06:16:53.374Z,73.87
2018-05-31T06:19:28.582Z,73.28
2018-05-31T06:22:03.278Z,73.60
2018-05-31T06:24:38.558Z,72.54
2018-05-31T06:27:13.277Z,72.46
2018-05-31T06:29:48.359Z,72.64
2018-05-31T06:32:23.781Z,72.05
2018-05-31T06:34:59.042Z,72.46
2018-05-31T06:37:33.868Z,72.72
2018-05-31T06:40:08.810Z,72.25
2018-05-31T06:42:43.946Z,71.46
2018-05-31T06:45:18.968Z,70.92
2018-05-31T06:47:53.834Z,70.20
2018-05-31T06:50:28.339Z,69.22
2018-05-31T06:53:03.470Z,68.06
2018-05-31T06:55:38.458Z,68.44
2018-05-31T06:58:13.589Z,68.41
2018-05-31T07:00:48.354Z,68.12
2018-05-31T07:03:23.209Z,67.43
2018-05-31T07:05:58.410Z,67.36
2018-05-31T07:08:33.433Z,66.99
2018-05-31T07:11:08.637Z,66.63
2018-05-31T07:13:43.113Z,65.75
2018-05-31T07:16:18.041Z,65.55
2018-05-31T07:18:52.769Z,63.72
2018-05-31T07:21:27.643Z,64.82
2018-05-31T07:24:03.030Z,64.64
2018-05-31T07:26:37.684Z,63.79
2018-05-31T07:29:12.315Z,63.42
2018-05-31T07:31:47.448Z,63.74
2018-05-31T07:34:22.466Z,63.43
2018-05-31T07:36:57.174Z,63.19
2018-05-31T07:39:31.943Z,63.28
2018-05-31T07:42:07.258Z,62.60
2018-05-31T07:44:41.886Z,62.29
2018-05-31T07:47:16.981Z,62.70
2018-05-31T07:49:51.987Z,62.82
2018-05-31T07:52:27.310Z,63.22
2018-05-31T07:55:02.490Z,63.12
2018-05-31T07:57:37.323Z,62.40
2018-05-31T08:00:12.425Z,62.18
2018-05-31T08:02:47.282Z,62.82
2018-05-31T08:05:22.540Z,61.77
2018-05-31T08:07:57.490Z,62.31
2018-05-31T08:10:32.690Z,60.90
2018-05-31T08:13:08.065Z,61.40
2018-05-31T08:15:43.031Z,61.50
2018-05-31T08:18:18.212Z,61.41
2018-05-31T08:20:53.470Z,59.92
2018-05-31T08:23:28.491Z,58.65
2018-05-31T08:26:03.394Z,57.55
2018-05-31T08:28:38.278Z,56.19
2018-05-31T08:31:13.286Z,55.07
2018-05-31T08:33:47.910Z,56.27
2018-05-31T08:36:22.718Z,56.46
2018-05-31T08:38:57.565Z,55.92
2018-05-31T08:41:32.106Z,56.71
2018-05-31T08:44:06.832Z,56.34
2018-05-31T08:46:42.230Z,56.03
2018-05-31T08:49:17.340Z,56.74
2018-05-31T08:51:52.346Z,56.66
2018-05-31T08:54:27.714Z,55.46
2018-05-31T08:57:02.253Z,55.60
2018-05-31T08:59:37.318Z,54.07
2018-05-31T09:02:12.495Z,53.36
2018-05-31T09:04:47.946Z,53.45
2018-05-31T09:07:23.161Z,52.97
2018-05-31T09:09:58.418Z,53.91
2018-05-31T09:12:33.782Z,54.61
2018-05-31T09:15:08.241Z,53.82
2018-05-31T09:17:43.306Z,53.84
2018-05-31T09:20:18.063Z,54.02
2018-05-31T09:22:53.197Z,52.14
2018-05-31T09:25:28.207Z,52.59
2018-05-31T09:28:03.009Z,53.46
2018-05-31T09:30:38.058Z,54.27
2018-05-31T09:33:13.451Z,51.88
2018-05-31T09:35:48.659Z,50.53
2018-05-31T09:38:23.729Z,50.51
2018-05-31T09:40:58.490Z,52.01
2018-05-31T09:43:33.781Z,51.37
2018-05-31T09:46:08.733Z,50.36
2018-05-31T09:48:43.555Z,50.27
2018-05-31T09:51:18.881Z,50.57
2018-05-31T09:53:53.929Z,50.43
2018-05-31T09:56:28.980Z,50.36
2018-05-31T09:59:04.083Z,49.48
2018-05-31T10:01:38.642Z,49.71
2018-05-31T10:04:14.118Z,47.46
2018-05-31T10:06:49.222Z,48.12
2018-05-31T10:09:24.558Z,46.10
2018-05-31T10:11:59.879Z,46.35
2018-05-31T10:14:35.194Z,46.25
2018-05-31T10:17:10.039Z,46.38
2018-05-31T10:19:44.914Z,47.38
2018-05-31T10:22:19.924Z,47.02
2018-05-31T10:24:54.970Z,46.64
2018-05-31T10:27:29.807Z,46.59
2018-05-31T10:30:04.547Z,45.82
2018-05-31T10:32:39.959Z,46.37
2018-05-31T10:35:14.861Z,47.23
2018-05-31T10:37:49.593Z,46.65
2018-05-31T10:40:24.483Z,45.44
2018-05-31T10:42:58.942Z,44.90
2018-05-31T10:45:33.918Z,44.43
2018-05-31T10:48:08.734Z,42.92
2018-05-31T10:50:43.677Z,41.11
2018-05-31T10:53:18.517Z,41.82
2018-05-31T10:55:53.528Z,40.95
2018-05-31T10:58:28.476Z,41.88
2018-05-31T11:01:03.505Z,43.23
2018-05-31T11:03:38.637Z,43.02
2018-05-31T11:06:13.237Z,43.13
2018-05-31T11:08:47.694Z,43.29
2018-05-31T11:11:22.999Z,43.44
2018-05-31T11:13:57.928Z,43.34
2018-05-31T11:16:32.975Z,43.79
2018-05-31T11:19:08.111Z,43.74
2018-05-31T11:21:42.806Z,42.91
2018-05-31T11:24:17.811Z,42.61
2018-05-31T11:26:52.982Z,44.17
2018-05-31T11:29:28.088Z,43.60
2018-05-31T11:32:03.317Z,43.33
2018-05-31T11:34:38.678Z,43.21
2018-05-31T11:37:13.803Z,44.15
2018-05-31T11:39:48.861Z,43.14
2018-05-31T11:42:23.686Z,43.39
2018-05-31T11:44:58.805Z,43.10
2018-05-31T11:47:33.941Z,43.11
2018-05-31T11:50:09.067Z,42.35
2018-05-31T11:52:44.082Z,43.06
2018-05-31T11:55:19.275Z,42.67
2018-05-31T11:57:54.710Z,42.44
2018-05-31T12:00:29.646Z,40.97
2018-05-31T12:03:04.546Z,40.76
2018-05-31T12:05:39.638Z,40.45
2018-05-31T12:08:14.587Z,42.02
2018-05-31T12:10:49.403Z,42.50
2018-05-31T12:13:24.703Z,41.61
2018-05-31T12:15:59.555Z,40.66
2018-05-31T12:18:34.457Z,41.20
2018-05-31T12:21:08.996Z,39.90
2018-05-31T12:23:44.026Z,39.00
2018-05-31T12:26:18.708Z,36.95
2018-05-31T12:28:53.694Z,37.57
2018-05-31T12:31:28.754Z,37.59
2018-05-31T12:34:03.697Z,36.57
2018-05-31T12:36:38.697Z,37.11
2018-05-31T12:39:13.702Z,36.65
2018-05-31T12:41:48.814Z,37.67
2018-05-31T12:44:23.491Z,35.67
2018-05-31T12:46:58.639Z,37.42
2018-05-31T12:49:33.896Z,38.34
2018-05-31T12:52:08.782Z,37.27
2018-05-31T12:54:43.815Z,36.68
2018-05-31T12:57:19.003Z,35.93
2018-05-31T12:59:53.813Z,36.25
2018-05-31T13:02:28.754Z,36.41
2018-05-31T13:05:03.430Z,37.26
2018-05-31T13:07:38.722Z,37.23
2018-05-31T13:10:13.874Z,37.85
2018-05-31T13:12:48.679Z,38.31
2018-05-31T13:15:23.662Z,37.20
2018-05-31T13:17:58.547Z,37.54
2018-05-31T13:20:33.637Z,37.80
2018-05-31T13:23:08.443Z,36.81
2018-05-31T13:25:43.770Z,37.50
2018-05-31T13:28:18.869Z,37.07
2018-05-31T13:30:53.957Z,36.56
2018-05-31T13:33:29.310Z,38.74
2018-05-31T13:36:04.414Z,37.94
2018-05-31T13:38:39.716Z,38.87
2018-05-31T13:41:14.592Z,38.22
2018-05-31T13:43:50.126Z,38.41
2018-05-31T13:46:24.560Z,37.23
2018-05-31T13:48:59.750Z,37.18
2018-05-31T13:51:34.715Z,36.80
2018-05-31T13:54:09.924Z,36.46
2018-05-31T13:56:45.242Z,37.32
2018-05-31T13:59:20.557Z,36.64
2018-05-31T14:01:55.875Z,37.38
2018-05-31T14:04:31.031Z,38.24
2018-05-31T14:07:06.127Z,38.23
2018-05-31T14:09:41.604Z,38.54
2018-05-31T14:12:16.515Z,39.51
2018-05-31T14:14:51.527Z,39.97
2018-05-31T14:17:26.194Z,38.77
2018-05-31T14:20:01.154Z,37.05
2018-05-31T14:22:36.157Z,36.78
2018-05-31T14:25:11.225Z,37.10
2018-05-31T14:27:46.274Z,37.96
2018-05-31T14:30:21.414Z,39.55
2018-05-31T14:32:56.643Z,38.61
2018-05-31T14:35:31.897Z,38.61
2018-05-31T14:38:07.005Z,39.37
2018-05-31T14:40:42.178Z,39.31
2018-05-31T14:43:17.710Z,37.98
2018-05-31T14:45:52.638Z,36.39
2018-05-31T14:48:27.961Z,36.46
2018-05-31T14:51:03.143Z,36.75
2018-05-31T14:53:38.150Z,39.02
2018-05-31T14:56:13.255Z,40.03
2018-05-31T14:58:48.229Z,41.26
2018-05-31T15:01:23.013Z,41.16
2018-05-31T15:03:57.881Z,41.72
2018-05-31T15:06:32.871Z,41.40
2018-05-31T15:09:07.526Z,39.64
2018-05-31T15:11:42.629Z,36.19
2018-05-31T15:14:17.112Z,36.34
2018-05-31T15:16:52.159Z,38.21
2018-05-31T15:19:27.089Z,38.95
2018-05-31T15:22:02.206Z,38.92
2018-05-31T15:24:37.153Z,38.76
2018-05-31T15:27:11.996Z,39.27
2018-05-31T15:29:47.107Z,39.25
2018-05-31T15:32:22.212Z,39.61
2018-05-31T15:34:57.118Z,39.95
2018-05-31T15:37:31.588Z,40.06
2018-05-31T15:40:06.412Z,40.84
2018-05-31T15:42:41.427Z,41.55
2018-05-31T15:45:16.218Z,43.07
2018-05-31T15:47:51.038Z,43.48
2018-05-31T15:50:26.175Z,43.87
2018-05-31T15:53:01.316Z,44.17
2018-05-31T15:55:36.269Z,44.84
2018-05-31T15:58:10.966Z,44.24
2018-05-31T16:00:46.010Z,44.39
2018-05-31T16:03:21.271Z,44.84
2018-05-31T16:05:56.270Z,45.37
2018-05-31T16:08:31.165Z,46.07
2018-05-31T16:11:06.178Z,46.19
2018-05-31T16:13:40.707Z,46.56
2018-05-31T16:16:15.710Z,46.72
2018-05-31T16:18:50.660Z,46.55
2018-05-31T16:21:25.794Z,47.24
2018-05-31T16:24:01.032Z,46.99
2018-05-31T16:26:36.290Z,47.28
2018-05-31T16:29:10.811Z,47.17
2018-05-31T16:31:45.950Z,47.72
2018-05-31T16:34:21.279Z,48.02
2018-05-31T16:36:56.330Z,47.68
2018-05-31T16:39:31.762Z,47.54
2018-05-31T16:42:06.977Z,47.50
2018-05-31T16:44:42.337Z,47.38
2018-05-31T16:47:17.275Z,47.26
2018-05-31T16:49:52.327Z,47.16
2018-05-31T16:52:27.142Z,47.95
2018-05-31T16:55:02.202Z,48.64
2018-05-31T16:57:37.027Z,48.71
2018-05-31T17:00:12.141Z,49.02
2018-05-31T17:02:47.402Z,50.56
2018-05-31T17:05:22.545Z,49.91
2018-05-31T17:07:57.663Z,51.72
2018-05-31T17:10:32.602Z,53.67
2018-05-31T17:13:07.554Z,55.96
2018-05-31T17:15:42.691Z,57.83
2018-05-31T17:18:17.399Z,59.45
2018-05-31T17:20:52.228Z,60.74
2018-05-31T17:23:27.370Z,61.51
2018-05-31T17:26:02.502Z,62.12
2018-05-31T17:28:37.206Z,62.69
2018-05-31T17:31:11.775Z,63.54
2018-05-31T17:33:47.033Z,64.45
2018-05-31T17:36:22.350Z,65.11
2018-05-31T17:38:57.483Z,65.75
2018-05-31T17:41:32.862Z,66.09
2018-05-31T17:44:07.947Z,67.03
2018-05-31T17:46:43.083Z,67.79
2018-05-31T17:49:18.241Z,68.31
2018-05-31T17:51:53.273Z,68.92
2018-05-31T17:54:28.266Z,69.47
2018-05-31T17:57:03.299Z,69.99
2018-05-31T17:59:38.161Z,70.39
2018-05-31T18:02:13.225Z,70.68
2018-05-31T18:04:48.101Z,70.93
2018-05-31T18:07:23.179Z,70.76
2018-05-31T18:09:58.206Z,70.59
2018-05-31T18:12:33.544Z,69.97
2018-05-31T18:15:07.965Z,69.92
2018-05-31T18:17:43.032Z,70.00
2018-05-31T18:20:17.989Z,70.47
2018-05-31T18:22:53.077Z,70.63
2018-05-31T18:25:28.230Z,70.92
2018-05-31T18:28:03.497Z,71.12
2018-05-31T18:30:38.497Z,71.08
2018-05-31T18:33:13.738Z,71.07
2018-05-31T18:35:48.872Z,71.01
2018-05-31T18:38:23.784Z,70.92
2018-05-31T18:40:58.899Z,70.64
2018-05-31T18:43:34.274Z,70.33
2018-05-31T18:46:09.351Z,69.91
2018-05-31T18:48:43.965Z,69.55
2018-05-31T18:51:20.002Z,69.48
2018-05-31T18:53:54.974Z,69.16
2018-05-31T18:56:30.178Z,69.17
2018-05-31T18:59:05.308Z,69.04
2018-05-31T19:01:40.567Z,69.02
2018-05-31T19:04:15.887Z,69.15
2018-05-31T19:06:51.159Z,69.35
2018-05-31T19:09:31.372Z,69.71
2018-05-31T19:12:05.686Z,69.87
2018-05-31T19:14:40.871Z,69.97
2018-05-31T19:17:15.888Z,70.18
2018-05-31T19:19:55.488Z,70.32
2018-05-31T19:22:30.854Z,70.54
2018-05-31T19:25:11.269Z,70.70
2018-05-31T19:27:45.751Z,70.86
2018-05-31T19:30:26.102Z,70.93
2018-05-31T19:33:00.720Z,70.86
2018-05-31T19:35:41.302Z,70.73
2018-05-31T19:38:16.322Z,70.56
2018-05-31T19:40:51.426Z,70.66
2018-05-31T19:43:31.726Z,70.83
2018-05-31T19:46:06.371Z,70.89
2018-05-31T19:48:41.535Z,71.10
2018-05-31T19:51:21.971Z,71.25
2018-05-31T19:53:57.127Z,71.48
2018-05-31T19:56:32.360Z,71.69
2018-05-31T19:59:12.437Z,71.86
2018-05-31T20:01:53.009Z,72.12
2018-05-31T20:04:27.659Z,72.56
2018-05-31T20:07:02.799Z,72.67
2018-05-31T20:09:37.746Z,72.83
2018-05-31T20:12:13.084Z,72.98
2018-05-31T20:14:48.218Z,73.06
2018-05-31T20:17:23.254Z,73.18
2018-05-31T20:19:58.302Z,73.41
2018-05-31T20:22:32.964Z,73.75
2018-05-31T20:25:08.156Z,74.12
2018-05-31T20:27:43.040Z,74.38
2018-05-31T20:30:17.954Z,74.60
2018-05-31T20:32:52.680Z,74.90
2018-05-31T20:35:27.434Z,75.00
2018-05-31T20:38:02.346Z,75.12
2018-05-31T20:40:37.603Z,75.21
2018-05-31T20:43:12.538Z,75.29
2018-05-31T20:45:48.480Z,75.10
2018-05-31T20:48:23.625Z,75.06
2018-05-31T20:50:58.597Z,75.21
2018-05-31T20:53:33.813Z,75.37
2018-05-31T20:56:08.618Z,75.62
2018-05-31T20:58:43.864Z,75.60
2018-05-31T21:01:18.943Z,75.59
2018-05-31T21:03:53.977Z,75.60
2018-05-31T21:06:29.750Z,75.73
2018-05-31T21:09:04.382Z,75.91
2018-05-31T21:11:39.595Z,76.27
2018-05-31T21:14:15.159Z,76.97
2018-05-31T21:16:50.170Z,78.07
2018-05-31T21:19:26.059Z,79.26
2018-05-31T21:22:01.503Z,80.52
2018-05-31T21:24:38.483Z,81.19
2018-05-31T21:27:14.083Z,81.23
2018-05-31T21:29:49.170Z,80.96
2018-05-31T21:32:23.865Z,80.69
2018-05-31T21:34:58.982Z,80.44
2018-05-31T21:37:33.841Z,80.33
2018-05-31T21:40:08.737Z,80.16
2018-05-31T21:42:43.786Z,79.95
2018-05-31T21:45:18.817Z,80.15
2018-05-31T21:47:53.968Z,80.54
2018-05-31T21:50:28.999Z,80.83
2018-05-31T21:53:04.142Z,80.82
2018-05-31T21:55:39.059Z,80.67
2018-05-31T21:58:14.244Z,80.68
2018-05-31T22:00:54.614Z,80.63
2018-05-31T22:03:29.713Z,80.55
2018-05-31T22:06:04.343Z,80.57
2018-05-31T22:08:39.242Z,80.56
2018-05-31T22:11:14.210Z,80.67
2018-05-31T22:13:49.231Z,80.83
2018-05-31T22:16:23.933Z,81.06
2018-05-31T22:18:58.934Z,81.28
2018-05-31T22:21:34.126Z,81.47
2018-05-31T22:24:09.043Z,81.43
2018-05-31T22:26:43.247Z,81.51
2018-05-31T22:29:18.623Z,81.77
2018-05-31T22:31:53.346Z,82.29
2018-05-31T22:34:28.666Z,82.56
2018-05-31T22:37:03.835Z,82.69
2018-05-31T22:39:38.565Z,82.53
2018-05-31T22:42:13.040Z,82.48
2018-05-31T22:44:47.946Z,82.53
2018-05-31T22:47:23.114Z,82.53
2018-05-31T22:49:57.666Z,82.40
2018-05-31T22:52:32.443Z,82.32
2018-05-31T22:55:07.062Z,82.30
2018-05-31T22:57:42.098Z,82.21
2018-05-31T23:00:17.234Z,82.18
2018-05-31T23:02:51.900Z,82.22
2018-05-31T23:05:27.029Z,82.25
2018-05-31T23:08:01.731Z,82.39
2018-05-31T23:10:36.338Z,82.59
2018-05-31T23:13:11.417Z,82.67
2018-05-31T23:15:46.479Z,82.62
2018-05-31T23:18:21.737Z,82.95
2018-05-31T23:20:56.741Z,83.53
2018-05-31T23:23:31.738Z,84.49
2018-05-31T23:26:06.377Z,85.17
2018-05-31T23:28:41.394Z,85.51
2018-05-31T23:31:16.419Z,85.37
2018-05-31T23:33:50.940Z,85.10
2018-05-31T23:36:26.175Z,84.84
2018-05-31T23:39:01.145Z,84.88
2018-05-31T23:41:35.951Z,84.71
2018-05-31T23:44:10.890Z,84.75
2018-05-31T23:46:46.197Z,84.89
2018-05-31T23:49:20.926Z,84.97
2018-05-31T23:51:55.867Z,85.06
2018-05-31T23:54:30.714Z,84.94
2018-05-31T23:57:05.372Z,85.02
2018-05-31T23:59:40.374Z,85.20
